createdAt,value
2022-08-24T00:01:11.202Z,5.20
2022-08-24T00:03:39.681Z,4.30
2022-08-24T00:06:09.350Z,3.92
2022-08-24T00:11:03.994Z,3.72
2022-08-24T00:13:32.600Z,4.43
2022-08-24T00:16:04.285Z,5.57
2022-08-24T00:18:31.290Z,5.20
2022-08-24T00:20:58.110Z,5.20
2022-08-24T00:23:24.857Z,5.95
2022-08-24T00:25:52.116Z,5.07
2022-08-24T00:28:18.917Z,6.62
2022-08-24T00:30:45.691Z,4.87
2022-08-24T00:33:12.443Z,4.55
2022-08-24T00:35:39.931Z,7.80
2022-08-24T00:38:07.201Z,4.50
2022-08-24T00:40:37.554Z,4.90
2022-08-24T00:43:06.513Z,6.35
2022-08-24T00:45:48.021Z,5.72
2022-08-24T00:48:23.822Z,5.05
2022-08-24T00:50:57.103Z,6.15
2022-08-24T00:53:32.432Z,7.15
2022-08-24T00:56:03.921Z,5.03
2022-08-24T00:58:43.961Z,5.62
2022-08-24T01:01:12.567Z,5.93
2022-08-24T01:03:39.922Z,5.70
2022-08-24T01:06:06.822Z,8.23
2022-08-24T01:08:34.441Z,4.78
2022-08-24T01:11:03.782Z,6.82
2022-08-24T01:13:32.705Z,4.53
2022-08-24T01:16:03.236Z,5.75
2022-08-24T01:18:49.122Z,7.07
2022-08-24T01:21:19.132Z,5.05
2022-08-24T01:26:22.857Z,9.57
2022-08-24T01:28:55.993Z,5.82
2022-08-24T01:31:25.161Z,6.53
2022-08-24T01:33:53.568Z,5.28
2022-08-24T01:36:36.306Z,8.80
2022-08-24T01:39:10.320Z,7.47
2022-08-24T01:41:38.263Z,8.05
2022-08-24T01:44:05.706Z,8.27
2022-08-24T01:46:32.634Z,8.77
2022-08-24T01:48:59.507Z,7.62
2022-08-24T01:51:33.667Z,6.37
2022-08-24T01:54:03.190Z,6.28
2022-08-24T01:56:31.400Z,7.25
2022-08-24T01:59:00.856Z,7.43
2022-08-24T02:01:30.385Z,5.72
2022-08-24T02:04:00.820Z,6.97
2022-08-24T02:06:27.557Z,7.72
2022-08-24T02:08:54.417Z,6.70
2022-08-24T02:11:21.237Z,9.27
2022-08-24T02:13:48.088Z,7.87
2022-08-24T02:16:15.258Z,7.60
2022-08-24T02:18:42.638Z,9.70
2022-08-24T02:21:11.585Z,6.90
2022-08-24T02:23:40.177Z,8.35
2022-08-24T02:26:09.190Z,10.07
2022-08-24T02:28:37.233Z,7.62
2022-08-24T02:31:06.119Z,9.32
2022-08-24T02:33:34.798Z,7.93
2022-08-24T02:36:02.225Z,9.13
2022-08-24T02:38:30.772Z,8.70
2022-08-24T02:40:58.129Z,8.85
2022-08-24T02:43:25.182Z,10.70
2022-08-24T02:45:52.248Z,11.63
2022-08-24T02:48:20.241Z,8.25
2022-08-24T02:50:49.667Z,7.82
2022-08-24T02:53:18.522Z,7.80
2022-08-24T02:55:45.883Z,7.50
2022-08-24T02:58:13.689Z,8.25
2022-08-24T03:00:45.186Z,6.87
2022-08-24T03:03:12.104Z,9.02
2022-08-24T03:05:39.272Z,9.73
2022-08-24T03:08:06.469Z,8.75
2022-08-24T03:10:33.592Z,12.32
2022-08-24T03:13:01.571Z,8.05
2022-08-24T03:15:30.171Z,7.72
2022-08-24T03:17:57.128Z,8.38
2022-08-24T03:20:25.058Z,10.48
2022-08-24T03:22:53.421Z,7.95
2022-08-24T03:25:24.728Z,9.77
2022-08-24T03:27:52.236Z,9.55
2022-08-24T03:30:19.185Z,7.93
2022-08-24T03:32:45.960Z,7.87
2022-08-24T03:35:14.355Z,10.35
2022-08-24T03:37:41.458Z,10.57
2022-08-24T03:40:22.450Z,9.00
2022-08-24T03:42:52.012Z,8.30
2022-08-24T03:45:19.276Z,9.88
2022-08-24T03:47:46.530Z,7.70
2022-08-24T03:50:14.603Z,8.07
2022-08-24T03:52:42.038Z,10.73
2022-08-24T03:55:10.449Z,10.48
2022-08-24T03:57:37.211Z,10.25
2022-08-24T04:00:11.512Z,9.40
2022-08-24T04:02:38.536Z,9.23
2022-08-24T04:05:07.378Z,9.32
2022-08-24T04:07:34.182Z,9.03
2022-08-24T04:10:02.047Z,15.55
2022-08-24T04:12:28.773Z,10.65
2022-08-24T04:14:58.433Z,10.63
2022-08-24T04:19:58.208Z,12.07
2022-08-24T04:22:28.039Z,10.57
2022-08-24T04:24:54.946Z,11.30
2022-08-24T04:27:22.285Z,12.40
2022-08-24T04:29:49.221Z,14.20
2022-08-24T04:32:16.018Z,11.77
2022-08-24T04:34:44.272Z,14.90
2022-08-24T04:37:12.364Z,11.27
2022-08-24T04:39:39.850Z,13.55
2022-08-24T04:42:07.430Z,10.38
2022-08-24T04:44:36.526Z,14.13
2022-08-24T04:47:04.252Z,11.85
2022-08-24T04:49:31.463Z,11.25
2022-08-24T04:51:58.543Z,10.25
2022-08-24T04:54:25.402Z,10.85
2022-08-24T04:56:52.203Z,9.93
2022-08-24T04:59:19.564Z,12.75
2022-08-24T05:01:46.426Z,9.95
2022-08-24T05:04:13.732Z,10.68
2022-08-24T05:06:41.646Z,15.55
2022-08-24T05:09:09.533Z,10.38
2022-08-24T05:11:40.061Z,11.50
2022-08-24T05:14:09.669Z,11.12
2022-08-24T05:16:38.331Z,14.00
2022-08-24T05:19:07.367Z,11.50
2022-08-24T05:21:34.512Z,13.07
2022-08-24T05:24:01.300Z,11.68
2022-08-24T05:26:29.657Z,10.93
2022-08-24T05:28:59.214Z,11.55
2022-08-24T05:31:28.768Z,10.38
2022-08-24T05:33:56.365Z,8.85
2022-08-24T05:36:29.700Z,15.32
2022-08-24T05:39:00.698Z,10.43
2022-08-24T05:41:28.722Z,11.80
2022-08-24T05:43:56.042Z,10.73
2022-08-24T05:46:23.055Z,10.40
2022-08-24T05:48:52.941Z,12.45
2022-08-24T05:51:21.581Z,17.02
2022-08-24T05:53:48.659Z,14.82
2022-08-24T05:56:17.556Z,10.95
2022-08-24T05:58:44.738Z,11.55
2022-08-24T06:01:15.027Z,10.38
2022-08-24T06:03:42.421Z,8.95
2022-08-24T06:06:10.529Z,10.68
2022-08-24T06:08:43.021Z,16.20
2022-08-24T06:11:10.809Z,10.25
2022-08-24T06:13:37.729Z,9.98
2022-08-24T06:16:21.263Z,9.90
2022-08-24T06:18:50.060Z,11.10
2022-08-24T06:21:21.146Z,14.52
2022-08-24T06:23:48.493Z,9.93
2022-08-24T06:26:34.311Z,24.73
2022-08-24T06:29:02.527Z,10.18
2022-08-24T06:31:39.471Z,9.50
2022-08-24T06:34:12.031Z,12.20
2022-08-24T06:36:39.269Z,10.80
2022-08-24T06:39:09.997Z,10.45
2022-08-24T06:41:41.431Z,8.85
2022-08-24T06:44:09.008Z,10.05
2022-08-24T06:46:39.104Z,10.70
2022-08-24T06:49:06.072Z,9.38
2022-08-24T06:51:32.958Z,9.65
2022-08-24T06:54:00.585Z,11.00
2022-08-24T06:56:27.595Z,9.88
2022-08-24T06:58:54.410Z,8.65
2022-08-24T07:01:24.906Z,10.73
2022-08-24T07:03:52.654Z,9.93
2022-08-24T07:06:19.867Z,10.00
2022-08-24T07:08:46.775Z,10.70
2022-08-24T07:11:17.790Z,10.23
2022-08-24T07:13:47.524Z,9.75
2022-08-24T07:16:23.548Z,10.73
2022-08-24T07:18:52.525Z,8.32
2022-08-24T07:21:20.618Z,8.93
2022-08-24T07:23:54.084Z,7.90
2022-08-24T07:26:23.293Z,11.48
2022-08-24T07:29:07.082Z,7.55
2022-08-24T07:31:38.962Z,9.60
2022-08-24T07:34:08.874Z,9.15
2022-08-24T07:36:39.851Z,8.63
2022-08-24T07:39:10.562Z,11.43
2022-08-24T07:42:02.657Z,10.52
2022-08-24T07:44:31.305Z,11.60
2022-08-24T07:47:07.080Z,12.48
2022-08-24T07:49:45.906Z,12.45
2022-08-24T07:52:13.575Z,11.32
2022-08-24T07:54:41.263Z,11.73
2022-08-24T07:57:08.837Z,11.82
2022-08-24T07:59:36.838Z,11.35
2022-08-24T08:02:05.330Z,10.88
2022-08-24T08:04:33.057Z,9.48
2022-08-24T08:07:01.920Z,11.15
2022-08-24T08:09:29.447Z,10.80
2022-08-24T08:11:56.382Z,10.98
2022-08-24T08:14:23.496Z,10.35
2022-08-24T08:16:50.489Z,8.40
2022-08-24T08:19:17.846Z,8.90
2022-08-24T08:22:06.626Z,11.27
2022-08-24T08:24:33.627Z,9.75
2022-08-24T08:27:00.991Z,8.98
2022-08-24T08:29:28.588Z,11.23
2022-08-24T08:31:56.110Z,10.30
2022-08-24T08:34:23.421Z,9.23
2022-08-24T08:36:51.044Z,9.00
2022-08-24T08:39:20.502Z,9.07
2022-08-24T08:45:03.524Z,8.48
2022-08-24T08:47:53.852Z,8.18
2022-08-24T08:50:50.413Z,13.05
2022-08-24T08:53:54.558Z,10.20
2022-08-24T08:56:43.384Z,10.15
2022-08-24T08:59:13.070Z,12.02
2022-08-24T09:01:50.214Z,8.70
2022-08-24T09:04:55.496Z,10.75
2022-08-24T09:08:04.029Z,10.60
2022-08-24T09:10:42.414Z,11.02
2022-08-24T09:13:27.318Z,17.42
2022-08-24T09:15:57.700Z,8.95
2022-08-24T09:18:43.659Z,10.10
2022-08-24T09:21:16.412Z,9.77
2022-08-24T09:24:01.546Z,9.85
2022-08-24T09:26:33.516Z,9.43
2022-08-24T09:29:15.362Z,10.00
2022-08-24T09:32:19.587Z,13.90
2022-08-24T09:35:00.538Z,11.07
2022-08-24T09:38:13.715Z,10.05
2022-08-24T09:40:40.709Z,10.70
2022-08-24T09:43:39.434Z,10.65
2022-08-24T09:46:36.300Z,9.52
2022-08-24T09:49:13.600Z,8.93
2022-08-24T09:51:59.510Z,11.38
2022-08-24T09:54:50.779Z,9.68
2022-08-24T09:58:00.180Z,9.52
2022-08-24T10:00:44.132Z,11.32
2022-08-24T10:03:42.354Z,9.10
2022-08-24T10:06:40.292Z,10.30
2022-08-24T10:09:34.586Z,11.70
2022-08-24T10:12:08.657Z,8.63
2022-08-24T10:14:41.345Z,9.73
2022-08-24T10:17:39.233Z,8.82
2022-08-24T10:20:23.586Z,12.40
2022-08-24T10:23:15.115Z,10.07
2022-08-24T10:26:10.091Z,12.73
2022-08-24T10:29:18.451Z,9.85
2022-08-24T10:32:07.916Z,10.37
2022-08-24T10:35:00.326Z,10.38
2022-08-24T10:38:14.583Z,10.27
2022-08-24T10:41:16.662Z,10.43
2022-08-24T10:43:59.374Z,9.98
2022-08-24T10:46:57.976Z,10.02
2022-08-24T10:52:25.725Z,10.75
2022-08-24T10:54:52.932Z,10.15
2022-08-24T10:57:38.107Z,11.07
2022-08-24T11:00:23.034Z,9.38
2022-08-24T11:03:13.101Z,10.50
2022-08-24T11:05:47.538Z,12.35
2022-08-24T11:08:33.840Z,10.30
2022-08-24T11:11:07.058Z,11.40
2022-08-24T11:13:36.817Z,9.38
2022-08-24T11:16:06.359Z,12.00
2022-08-24T11:18:49.637Z,9.88
2022-08-24T11:21:32.127Z,9.45
2022-08-24T11:24:09.250Z,10.93
2022-08-24T11:26:53.606Z,9.93
2022-08-24T11:29:23.477Z,8.82
2022-08-24T11:31:52.809Z,11.10
2022-08-24T11:34:32.023Z,12.30
2022-08-24T11:36:59.286Z,9.80
2022-08-24T11:39:37.907Z,10.50
2022-08-24T11:42:10.953Z,9.13
2022-08-24T11:44:45.668Z,11.15
2022-08-24T11:47:31.107Z,11.40
2022-08-24T11:50:16.882Z,11.80
2022-08-24T11:53:20.019Z,10.98
2022-08-24T11:55:51.720Z,11.90
2022-08-24T11:58:34.572Z,9.77
2022-08-24T12:01:20.147Z,9.45
2022-08-24T12:03:55.843Z,10.98
2022-08-24T12:06:49.164Z,11.77
2022-08-24T12:09:53.822Z,11.77
2022-08-24T12:12:42.176Z,11.95
2022-08-24T12:15:21.309Z,13.52
2022-08-24T12:17:56.452Z,12.25
2022-08-24T12:20:32.239Z,9.27
2022-08-24T12:23:43.984Z,11.50
2022-08-24T12:26:45.963Z,9.23
2022-08-24T12:29:30.853Z,11.02
2022-08-24T12:32:03.636Z,9.10
2022-08-24T12:34:43.945Z,10.07
2022-08-24T12:37:18.284Z,10.77
2022-08-24T12:39:54.136Z,12.32
2022-08-24T12:42:48.619Z,11.98
2022-08-24T12:45:20.633Z,9.77
2022-08-24T12:50:25.894Z,9.77
2022-08-24T12:53:04.785Z,11.12
2022-08-24T12:56:00.391Z,9.38
2022-08-24T12:58:51.791Z,9.43
2022-08-24T13:01:29.185Z,9.50
2022-08-24T13:04:14.455Z,10.18
2022-08-24T13:06:54.225Z,10.73
2022-08-24T13:09:35.591Z,11.05
2022-08-24T13:12:43.787Z,15.25
2022-08-24T13:15:26.170Z,9.85
2022-08-24T13:17:57.765Z,12.05
2022-08-24T13:20:50.404Z,11.55
2022-08-24T13:23:20.695Z,11.47
2022-08-24T13:25:47.527Z,10.48
2022-08-24T13:28:23.325Z,10.10
2022-08-24T13:31:03.187Z,11.15
2022-08-24T13:33:47.845Z,9.65
2022-08-24T13:36:30.107Z,10.55
2022-08-24T13:39:12.550Z,11.80
2022-08-24T13:42:01.211Z,12.30
2022-08-24T13:44:46.700Z,11.68
2022-08-24T13:47:48.217Z,10.77
2022-08-24T13:50:40.068Z,10.75
2022-08-24T13:53:13.145Z,8.75
2022-08-24T13:55:52.611Z,11.80
2022-08-24T13:58:26.908Z,11.20
2022-08-24T14:01:26.483Z,11.32
2022-08-24T14:04:34.675Z,10.80
2022-08-24T14:07:28.378Z,14.80
2022-08-24T14:10:43.073Z,10.30
2022-08-24T14:13:35.166Z,12.77
2022-08-24T14:16:52.739Z,11.00
2022-08-24T14:19:22.443Z,10.10
2022-08-24T14:21:53.726Z,9.57
2022-08-24T14:24:46.243Z,10.25
2022-08-24T14:27:29.079Z,11.50
2022-08-24T14:30:18.663Z,11.65
2022-08-24T14:32:58.561Z,9.82
2022-08-24T14:35:33.347Z,9.95
2022-08-24T14:38:18.478Z,9.13
2022-08-24T14:41:01.748Z,8.93
2022-08-24T14:44:13.238Z,12.00
2022-08-24T14:47:08.438Z,13.00
2022-08-24T14:49:45.686Z,10.18
2022-08-24T14:52:27.628Z,10.18
2022-08-24T14:55:18.900Z,9.70
2022-08-24T14:58:29.153Z,9.70
2022-08-24T15:01:25.121Z,11.55
2022-08-24T15:04:22.028Z,12.98
2022-08-24T15:07:33.003Z,10.82
2022-08-24T15:10:01.363Z,12.10
2022-08-24T15:13:11.203Z,10.57
2022-08-24T15:15:58.136Z,10.95
2022-08-24T15:19:11.703Z,11.57
2022-08-24T15:22:01.642Z,10.77
2022-08-24T15:24:34.594Z,13.32
2022-08-24T15:27:07.893Z,11.80
2022-08-24T15:29:46.754Z,11.05
2022-08-24T15:32:14.092Z,10.75
2022-08-24T15:34:48.974Z,10.80
2022-08-24T15:37:26.009Z,12.20
2022-08-24T15:39:52.856Z,11.77
2022-08-24T15:42:19.755Z,12.88
2022-08-24T15:44:50.481Z,10.25
2022-08-24T15:47:23.482Z,11.55
2022-08-24T15:50:08.902Z,11.98
2022-08-24T15:52:56.376Z,9.95
2022-08-24T15:55:32.297Z,10.95
2022-08-24T15:58:34.824Z,14.85
2022-08-24T16:01:39.393Z,11.15
2022-08-24T16:04:15.219Z,14.20
2022-08-24T16:06:45.415Z,12.45
2022-08-24T16:09:15.346Z,12.45
2022-08-24T16:11:49.159Z,11.05
2022-08-24T16:14:30.734Z,11.25
2022-08-24T16:16:59.440Z,8.70
2022-08-24T16:19:33.614Z,12.05
2022-08-24T16:22:02.409Z,11.88
2022-08-24T16:25:07.800Z,12.35
2022-08-24T16:28:10.480Z,13.10
2022-08-24T16:30:52.238Z,11.57
2022-08-24T16:33:54.758Z,9.52
2022-08-24T16:36:21.724Z,7.43
2022-08-24T16:38:50.811Z,9.35
2022-08-24T16:41:21.554Z,10.75
2022-08-24T16:43:49.193Z,9.90
2022-08-24T16:46:21.992Z,9.98
2022-08-24T16:48:49.102Z,8.48
2022-08-24T16:51:16.128Z,8.63
2022-08-24T16:53:43.040Z,8.80
2022-08-24T16:56:12.575Z,11.43
2022-08-24T16:58:43.536Z,9.15
2022-08-24T17:01:10.376Z,10.48
2022-08-24T17:03:37.248Z,15.02
2022-08-24T17:06:04.175Z,9.32
2022-08-24T17:08:31.154Z,9.50
2022-08-24T17:10:58.226Z,12.55
2022-08-24T17:13:48.300Z,10.98
2022-08-24T17:16:13.047Z,10.85
2022-08-24T17:18:41.727Z,15.63
2022-08-24T17:21:08.723Z,9.27
2022-08-24T17:23:36.548Z,13.02
2022-08-24T17:26:10.348Z,12.05
2022-08-24T17:28:48.815Z,11.07
2022-08-24T17:31:15.885Z,13.43
2022-08-24T17:33:42.732Z,13.40
2022-08-24T17:36:15.235Z,10.50
2022-08-24T17:38:47.205Z,13.62
2022-08-24T17:41:18.527Z,14.27
2022-08-24T17:43:46.467Z,11.68
2022-08-24T17:46:15.109Z,14.57
2022-08-24T17:48:46.238Z,12.37
2022-08-24T17:51:13.782Z,11.05
2022-08-24T17:53:41.126Z,12.52
2022-08-24T17:56:08.639Z,9.70
2022-08-24T17:58:55.906Z,9.77
2022-08-24T18:01:23.572Z,10.48
2022-08-24T18:03:50.800Z,14.50
2022-08-24T18:06:26.372Z,8.32
2022-08-24T18:08:56.859Z,12.68
2022-08-24T18:11:26.191Z,11.70
2022-08-24T18:16:23.989Z,12.88
2022-08-24T18:18:52.535Z,9.65
2022-08-24T18:21:20.306Z,9.03
2022-08-24T18:23:48.828Z,12.73
2022-08-24T18:26:25.834Z,8.32
2022-08-24T18:28:55.115Z,9.95
2022-08-24T18:31:25.960Z,9.93
2022-08-24T18:33:52.948Z,8.38
2022-08-24T18:36:19.701Z,9.10
2022-08-24T18:38:46.745Z,10.38
2022-08-24T18:41:13.859Z,15.63
2022-08-24T18:43:40.704Z,8.90
2022-08-24T18:46:08.837Z,9.30
2022-08-24T18:48:36.391Z,10.60
2022-08-24T18:51:03.232Z,9.82
2022-08-24T18:53:30.331Z,12.27
2022-08-24T18:55:58.256Z,12.68
2022-08-24T18:58:26.576Z,17.25
2022-08-24T19:00:56.695Z,13.95
2022-08-24T19:03:25.882Z,11.55
2022-08-24T19:05:52.856Z,11.25
2022-08-24T19:08:19.778Z,10.00
2022-08-24T19:10:46.592Z,11.38
2022-08-24T19:13:18.649Z,12.50
2022-08-24T19:15:47.805Z,13.45
2022-08-24T19:18:21.472Z,11.18
2022-08-24T19:20:51.635Z,11.52
2022-08-24T19:23:39.335Z,11.98
2022-08-24T19:26:06.462Z,10.60
2022-08-24T19:28:33.557Z,13.10
2022-08-24T19:31:03.534Z,12.88
2022-08-24T19:33:38.631Z,10.63
2022-08-24T19:36:08.233Z,11.48
2022-08-24T19:38:35.201Z,14.02
2022-08-24T19:41:10.742Z,9.85
2022-08-24T19:44:00.303Z,14.63
2022-08-24T19:46:27.963Z,30.00
2022-08-24T19:48:54.971Z,21.62
2022-08-24T19:51:22.385Z,18.08
2022-08-24T19:53:49.248Z,26.17
2022-08-24T19:56:16.313Z,26.37
2022-08-24T19:58:52.654Z,23.80
2022-08-24T20:01:22.903Z,20.35
2022-08-24T20:03:49.937Z,18.37
2022-08-24T20:06:21.432Z,20.83
2022-08-24T20:08:48.663Z,15.18
2022-08-24T20:11:16.487Z,16.98
2022-08-24T20:13:43.863Z,16.55
2022-08-24T20:16:16.759Z,18.90
2022-08-24T20:18:44.505Z,20.17
2022-08-24T20:21:11.841Z,18.55
2022-08-24T20:23:39.084Z,19.50
2022-08-24T20:26:08.416Z,16.98
2022-08-24T20:28:46.372Z,19.70
2022-08-24T20:31:15.168Z,18.85
2022-08-24T20:33:42.450Z,19.43
2022-08-24T20:36:25.669Z,18.62
2022-08-24T20:38:55.652Z,16.62
2022-08-24T20:41:23.704Z,24.20
2022-08-24T20:43:50.846Z,19.85
2022-08-24T20:46:17.803Z,16.85
2022-08-24T20:48:46.765Z,12.45
2022-08-24T20:51:22.656Z,9.98
2022-08-24T20:53:49.507Z,10.20
2022-08-24T20:56:29.875Z,12.98
2022-08-24T20:59:01.379Z,12.98
2022-08-24T21:01:28.250Z,12.70
2022-08-24T21:03:55.295Z,18.17
2022-08-24T21:06:22.076Z,13.13
2022-08-24T21:08:51.977Z,14.02
2022-08-24T21:11:19.091Z,14.98
2022-08-24T21:13:46.703Z,17.15
2022-08-24T21:16:16.292Z,14.30
2022-08-24T21:21:13.475Z,17.20
2022-08-24T21:23:40.521Z,12.25
2022-08-24T21:26:10.638Z,15.45
2022-08-24T21:28:41.461Z,14.15
2022-08-24T21:31:08.848Z,12.52
2022-08-24T21:33:54.180Z,11.75
2022-08-24T21:36:24.190Z,13.93
2022-08-24T21:38:53.453Z,14.07
2022-08-24T21:41:21.326Z,14.70
2022-08-24T21:43:48.106Z,11.18
2022-08-24T21:46:15.368Z,18.48
2022-08-24T21:48:42.251Z,13.65
2022-08-24T21:51:09.332Z,11.48
2022-08-24T21:53:37.247Z,15.25
2022-08-24T21:56:04.462Z,14.80
2022-08-24T21:58:31.480Z,16.52
2022-08-24T22:00:59.532Z,16.75
2022-08-24T22:03:31.653Z,12.53
2022-08-24T22:06:08.705Z,13.62
2022-08-24T22:08:36.779Z,13.75
2022-08-24T22:11:04.098Z,15.00
2022-08-24T22:13:30.997Z,13.57
2022-08-24T22:15:57.858Z,14.45
2022-08-24T22:18:24.625Z,11.45
2022-08-24T22:20:51.593Z,14.25
2022-08-24T22:23:18.384Z,17.12
2022-08-24T22:25:45.450Z,11.50
2022-08-24T22:28:12.169Z,12.65
2022-08-24T22:30:38.926Z,15.20
2022-08-24T22:33:06.136Z,20.52
2022-08-24T22:35:34.528Z,14.20
2022-08-24T22:38:11.998Z,12.97
2022-08-24T22:40:38.878Z,13.38
2022-08-24T22:43:05.978Z,14.50
2022-08-24T22:45:33.006Z,20.42
2022-08-24T22:47:59.785Z,18.33
2022-08-24T22:50:26.646Z,23.40
2022-08-24T22:52:54.006Z,17.37
2022-08-24T22:55:21.037Z,18.05
2022-08-24T23:00:18.876Z,16.23
2022-08-24T23:02:45.634Z,15.23
2022-08-24T23:05:12.593Z,14.95
2022-08-24T23:07:39.403Z,17.67
2022-08-24T23:10:07.052Z,15.23
2022-08-24T23:12:33.894Z,16.20
2022-08-24T23:15:00.816Z,15.70
2022-08-24T23:17:27.632Z,17.50
2022-08-24T23:20:00.704Z,18.40
2022-08-24T23:22:37.968Z,17.05
2022-08-24T23:25:07.527Z,18.58
2022-08-24T23:30:12.273Z,16.42
2022-08-24T23:32:39.541Z,16.00
2022-08-24T23:35:07.012Z,17.27
2022-08-24T23:37:34.030Z,17.40
2022-08-24T23:40:01.141Z,15.55
2022-08-24T23:42:28.165Z,17.67
2022-08-24T23:44:55.204Z,17.80
2022-08-24T23:47:21.965Z,13.50
2022-08-24T23:49:48.810Z,22.30
2022-08-24T23:52:26.482Z,16.73
2022-08-24T23:55:07.107Z,18.05
2022-08-24T23:57:43.474Z,15.38
